DXXX/LFW METAR and TAF weather

Enter ICAO airport designator
Station Type Date Time Source
DXXX METAR 2024/02/26 17:00 UTC NOAA

DXXX 261700Z 21011KT 9999 FEW015 31/26 Q1009 NOSIG


Station Type Date Time Source
DXXX Decoded METAR 2024/02/26 17:00 UTC NOAA

Lome, Togo (DXXX) 06-10N 001-15E 25M
Feb 26, 2024 - 12:00 PM EST / 2024.02.26 1700 UTC
Wind: from the SSW (210 degrees) at 13 MPH (11 KT):0
Visibility: greater than 7 mile(s):0
Sky conditions: mostly clear
Temperature: 87 F (31 C)
Heat index: 99.7 F (37.6 C):1
Dew Point: 78 F (26 C)
Relative Humidity: 74%
Pressure (altimeter): 29.80 in. Hg (1009 hPa)
ob: DXXX 261700Z 21011KT 9999 FEW015 31/26 Q1009 NOSIG
cycle: 17

Station Type Date Time Source
DXXX TAF 2024/02/26 18:22 UTC NOAA